FDX506 EGKK-EHAM
Flight info
| Callsign | FDX506 |
|---|---|
| Flight time | 0h 54m |
| Altitude | 23000 |
| Route | FRANE M604 GASBA M197 REDFA |
| Aircraft | DH8D/M-SDE2E3FGRY/H |
Departure
| Time | 2026-05-04 12:42 |
|---|---|
| Airport | London Gatwick Airport (EGKK) |
Arrival
| Time | 2026-05-04 13:36 |
|---|---|
| Airport | Amsterdam Airport Schiphol (EHAM) |
| Time | Latitude | Longitude | Altitude | Speed | Heading |
|---|---|---|---|---|---|
| 2026-05-04 12:07 | 51.15703 | -0.18471 | 207 ft | 0 kts | 347° |
| 2026-05-04 12:26 | 51.15704 | -0.18471 | 207 ft | 0 kts | 347° |
| 2026-05-04 12:27 | 51.15696 | -0.18468 | 207 ft | 2 kts | 352° |
| 2026-05-04 12:27 | 51.15682 | -0.18468 | 207 ft | 2 kts | 6° |
| 2026-05-04 12:27 | 51.15667 | -0.18473 | 207 ft | 2 kts | 18° |
| 2026-05-04 12:27 | 51.15653 | -0.18482 | 207 ft | 2 kts | 31° |
| 2026-05-04 12:28 | 51.15641 | -0.18497 | 207 ft | 2 kts | 44° |
| 2026-05-04 12:28 | 51.15631 | -0.18514 | 207 ft | 2 kts | 56° |
| 2026-05-04 12:28 | 51.15625 | -0.18535 | 207 ft | 2 kts | 69° |
| 2026-05-04 12:28 | 51.15620 | -0.18558 | 207 ft | 2 kts | 79° |
| 2026-05-04 12:29 | 51.15617 | -0.18582 | 207 ft | 2 kts | 78° |
| 2026-05-04 12:29 | 51.15616 | -0.18594 | 207 ft | 0 kts | 78° |
| 2026-05-04 12:32 | 51.15628 | -0.18496 | 207 ft | 14 kts | 81° |
| 2026-05-04 12:32 | 51.15601 | -0.18370 | 207 ft | 11 kts | 148° |
| 2026-05-04 12:33 | 51.15519 | -0.18324 | 207 ft | 13 kts | 166° |
| 2026-05-04 12:33 | 51.15416 | -0.18287 | 207 ft | 14 kts | 167° |
| 2026-05-04 12:33 | 51.15332 | -0.18257 | 207 ft | 11 kts | 168° |
| 2026-05-04 12:33 | 51.15249 | -0.18231 | 207 ft | 16 kts | 173° |
| 2026-05-04 12:34 | 51.15167 | -0.18420 | 207 ft | 29 kts | 259° |
| 2026-05-04 12:34 | 51.15117 | -0.18793 | 207 ft | 38 kts | 258° |
| 2026-05-04 12:34 | 51.15069 | -0.19152 | 207 ft | 28 kts | 256° |
| 2026-05-04 12:34 | 51.15029 | -0.19417 | 207 ft | 21 kts | 257° |
| 2026-05-04 12:35 | 51.15004 | -0.19617 | 207 ft | 15 kts | 259° |
| 2026-05-04 12:35 | 51.14980 | -0.19766 | 207 ft | 12 kts | 255° |
| 2026-05-04 12:35 | 51.14966 | -0.19881 | 207 ft | 9 kts | 261° |
| 2026-05-04 12:35 | 51.14954 | -0.19990 | 207 ft | 12 kts | 259° |
| 2026-05-04 12:36 | 51.14933 | -0.20144 | 207 ft | 16 kts | 257° |
| 2026-05-04 12:36 | 51.14905 | -0.20335 | 207 ft | 19 kts | 258° |
| 2026-05-04 12:36 | 51.14877 | -0.20532 | 207 ft | 15 kts | 255° |
| 2026-05-04 12:36 | 51.14857 | -0.20677 | 207 ft | 11 kts | 260° |
| 2026-05-04 12:37 | 51.14845 | -0.20785 | 207 ft | 8 kts | 261° |
| 2026-05-04 12:37 | 51.14836 | -0.20859 | 207 ft | 5 kts | 257° |
| 2026-05-04 12:37 | 51.14829 | -0.20907 | 207 ft | 3 kts | 256° |
| 2026-05-04 12:37 | 51.14824 | -0.20933 | 207 ft | 2 kts | 257° |
| 2026-05-04 12:38 | 51.14807 | -0.21036 | 207 ft | 6 kts | 257° |
| 2026-05-04 12:38 | 51.14806 | -0.21051 | 207 ft | 0 kts | 258° |
| 2026-05-04 12:38 | 51.14805 | -0.21051 | 207 ft | 0 kts | 258° |
| 2026-05-04 12:38 | 51.14805 | -0.21052 | 207 ft | 0 kts | 258° |
| 2026-05-04 12:39 | 51.14799 | -0.21104 | 207 ft | 15 kts | 258° |
| 2026-05-04 12:39 | 51.14736 | -0.21286 | 207 ft | 20 kts | 224° |
| 2026-05-04 12:39 | 51.14618 | -0.21321 | 207 ft | 15 kts | 169° |
| 2026-05-04 12:39 | 51.14535 | -0.21236 | 207 ft | 15 kts | 118° |
| 2026-05-04 12:40 | 51.14530 | -0.21112 | 207 ft | 0 kts | 76° |
| 2026-05-04 12:41 | 51.14533 | -0.21094 | 207 ft | 12 kts | 75° |
| 2026-05-04 12:41 | 51.14622 | -0.20455 | 208 ft | 104 kts | 77° |
| 2026-05-04 12:41 | 51.14821 | -0.18980 | 217 ft | 162 kts | 77° |
| 2026-05-04 12:41 | 51.14997 | -0.17098 | 569 ft | 184 kts | 81° |
| 2026-05-04 12:42 | 51.15250 | -0.15119 | 1407 ft | 183 kts | 77° |
| 2026-05-04 12:42 | 51.15525 | -0.13208 | 2247 ft | 183 kts | 77° |
| 2026-05-04 12:42 | 51.15801 | -0.11245 | 3026 ft | 186 kts | 77° |
| 2026-05-04 12:42 | 51.16080 | -0.09239 | 3813 ft | 189 kts | 77° |
| 2026-05-04 12:43 | 51.16364 | -0.07174 | 4589 ft | 193 kts | 78° |
| 2026-05-04 12:43 | 51.16647 | -0.05105 | 5361 ft | 197 kts | 78° |
| 2026-05-04 12:43 | 51.16831 | -0.02948 | 6119 ft | 200 kts | 89° |
| 2026-05-04 12:43 | 51.16804 | -0.00742 | 6888 ft | 204 kts | 92° |
| 2026-05-04 12:44 | 51.16759 | 0.01518 | 7677 ft | 206 kts | 93° |
| 2026-05-04 12:44 | 51.16713 | 0.03801 | 8450 ft | 209 kts | 93° |
| 2026-05-04 12:44 | 51.16668 | 0.06093 | 9213 ft | 213 kts | 93° |
| 2026-05-04 12:44 | 51.16622 | 0.08441 | 9997 ft | 215 kts | 93° |
| 2026-05-04 12:45 | 51.16576 | 0.10829 | 10745 ft | 219 kts | 93° |
| 2026-05-04 12:45 | 51.16530 | 0.13233 | 11487 ft | 222 kts | 93° |
| 2026-05-04 12:45 | 51.16483 | 0.15690 | 12248 ft | 225 kts | 93° |
| 2026-05-04 12:45 | 51.16472 | 0.18193 | 12986 ft | 229 kts | 91° |
| 2026-05-04 12:46 | 51.16483 | 0.20714 | 13729 ft | 232 kts | 90° |
| 2026-05-04 12:46 | 51.16494 | 0.23257 | 14511 ft | 233 kts | 90° |
| 2026-05-04 12:46 | 51.16502 | 0.25825 | 15286 ft | 235 kts | 91° |
| 2026-05-04 12:46 | 51.16510 | 0.28416 | 16057 ft | 237 kts | 91° |
| 2026-05-04 12:47 | 51.16515 | 0.31016 | 16812 ft | 239 kts | 91° |
| 2026-05-04 12:47 | 51.16520 | 0.33655 | 17570 ft | 242 kts | 92° |
| 2026-05-04 12:47 | 51.16523 | 0.36316 | 18326 ft | 244 kts | 92° |
| 2026-05-04 12:47 | 51.16526 | 0.39033 | 19054 ft | 248 kts | 92° |
| 2026-05-04 12:48 | 51.16528 | 0.41783 | 19738 ft | 254 kts | 92° |
| 2026-05-04 12:48 | 51.16529 | 0.44589 | 20435 ft | 258 kts | 92° |
| 2026-05-04 12:48 | 51.16530 | 0.47448 | 21140 ft | 258 kts | 92° |
| 2026-05-04 12:48 | 51.16542 | 0.50355 | 21392 ft | 266 kts | 90° |
| 2026-05-04 12:49 | 51.17017 | 0.53200 | 21641 ft | 271 kts | 59° |
| 2026-05-04 12:49 | 51.18401 | 0.55188 | 21817 ft | 274 kts | 23° |
| 2026-05-04 12:49 | 51.20216 | 0.56058 | 22129 ft | 273 kts | 11° |
| 2026-05-04 12:49 | 51.22067 | 0.56737 | 22413 ft | 275 kts | 10° |
| 2026-05-04 12:50 | 51.23930 | 0.57418 | 22698 ft | 277 kts | 10° |
| 2026-05-04 12:50 | 51.25827 | 0.58114 | 22983 ft | 279 kts | 10° |
| 2026-05-04 12:50 | 51.27704 | 0.58806 | 23264 ft | 281 kts | 10° |
| 2026-05-04 12:50 | 51.29635 | 0.59520 | 23535 ft | 282 kts | 9° |
| 2026-05-04 12:51 | 51.31553 | 0.60232 | 23797 ft | 284 kts | 9° |
| 2026-05-04 12:51 | 51.33463 | 0.60943 | 24046 ft | 286 kts | 9° |
| 2026-05-04 12:51 | 51.35412 | 0.61670 | 24322 ft | 286 kts | 10° |
| 2026-05-04 12:51 | 51.37339 | 0.62390 | 24553 ft | 288 kts | 10° |
| 2026-05-04 12:52 | 51.39298 | 0.63123 | 24798 ft | 289 kts | 10° |
| 2026-05-04 12:52 | 51.41259 | 0.63864 | 25035 ft | 290 kts | 10° |
| 2026-05-04 12:52 | 51.43236 | 0.64612 | 25245 ft | 291 kts | 10° |
| 2026-05-04 12:52 | 51.45206 | 0.65358 | 25458 ft | 293 kts | 11° |
| 2026-05-04 12:53 | 51.47174 | 0.66104 | 25642 ft | 293 kts | 11° |
| 2026-05-04 12:53 | 51.49165 | 0.66858 | 25733 ft | 299 kts | 11° |
| 2026-05-04 12:53 | 51.51246 | 0.67646 | 25467 ft | 317 kts | 11° |
| 2026-05-04 12:53 | 51.53452 | 0.68479 | 25006 ft | 339 kts | 11° |
| 2026-05-04 12:54 | 51.55821 | 0.69377 | 24523 ft | 355 kts | 11° |
| 2026-05-04 12:54 | 51.58257 | 0.70304 | 24030 ft | 363 kts | 11° |
| 2026-05-04 12:54 | 51.60737 | 0.71247 | 23536 ft | 370 kts | 11° |
| 2026-05-04 12:54 | 51.63237 | 0.72198 | 23049 ft | 374 kts | 11° |
| 2026-05-04 12:55 | 51.65768 | 0.73162 | 22565 ft | 377 kts | 11° |
| 2026-05-04 12:55 | 51.68297 | 0.74128 | 22491 ft | 367 kts | 11° |
| 2026-05-04 12:55 | 51.70766 | 0.75072 | 22389 ft | 361 kts | 11° |
| 2026-05-04 12:55 | 51.73147 | 0.75984 | 22587 ft | 348 kts | 11° |
| 2026-05-04 12:56 | 51.75464 | 0.76872 | 22803 ft | 338 kts | 11° |
| 2026-05-04 12:56 | 51.77783 | 0.77763 | 22959 ft | 344 kts | 11° |
| 2026-05-04 12:56 | 51.80103 | 0.78657 | 22993 ft | 351 kts | 11° |
| 2026-05-04 12:56 | 51.82420 | 0.79999 | 22958 ft | 362 kts | 28° |
| 2026-05-04 12:57 | 51.84248 | 0.82842 | 22984 ft | 367 kts | 56° |
| 2026-05-04 12:57 | 51.85186 | 0.86660 | 23035 ft | 368 kts | 77° |
| 2026-05-04 12:57 | 51.85780 | 0.90716 | 22996 ft | 373 kts | 78° |
| 2026-05-04 12:57 | 51.86393 | 0.94791 | 22971 ft | 377 kts | 77° |
| 2026-05-04 12:58 | 51.87038 | 0.98896 | 22982 ft | 379 kts | 77° |
| 2026-05-04 12:58 | 51.87709 | 1.03001 | 22997 ft | 381 kts | 76° |
| 2026-05-04 12:58 | 51.88404 | 1.07140 | 22996 ft | 382 kts | 76° |
| 2026-05-04 12:58 | 51.89116 | 1.11309 | 22986 ft | 384 kts | 76° |
| 2026-05-04 12:59 | 51.89842 | 1.15502 | 22979 ft | 385 kts | 75° |
| 2026-05-04 12:59 | 51.90571 | 1.19677 | 22986 ft | 386 kts | 75° |
| 2026-05-04 12:59 | 51.91302 | 1.23845 | 22989 ft | 387 kts | 75° |
| 2026-05-04 12:59 | 51.92034 | 1.27997 | 22986 ft | 387 kts | 75° |
| 2026-05-04 13:00 | 51.92779 | 1.32220 | 22984 ft | 388 kts | 75° |
| 2026-05-04 13:00 | 51.93519 | 1.36412 | 22980 ft | 386 kts | 75° |
| 2026-05-04 13:00 | 51.94247 | 1.40530 | 22983 ft | 381 kts | 75° |
| 2026-05-04 13:00 | 51.94970 | 1.44616 | 22982 ft | 378 kts | 75° |
| 2026-05-04 13:01 | 51.95692 | 1.48706 | 22985 ft | 375 kts | 75° |
| 2026-05-04 13:01 | 51.96399 | 1.52723 | 22985 ft | 373 kts | 75° |
| 2026-05-04 13:01 | 51.97107 | 1.56749 | 22985 ft | 371 kts | 75° |
| 2026-05-04 13:01 | 51.97816 | 1.60790 | 22983 ft | 370 kts | 75° |
| 2026-05-04 13:02 | 51.98516 | 1.64789 | 22986 ft | 369 kts | 75° |
| 2026-05-04 13:02 | 51.99209 | 1.68759 | 22982 ft | 367 kts | 76° |
| 2026-05-04 13:02 | 51.99870 | 1.72819 | 22981 ft | 366 kts | 77° |
| 2026-05-04 13:02 | 52.00482 | 1.76789 | 22990 ft | 365 kts | 77° |
| 2026-05-04 13:03 | 52.01094 | 1.80768 | 22990 ft | 365 kts | 77° |
| 2026-05-04 13:03 | 52.01706 | 1.84740 | 22984 ft | 364 kts | 77° |
| 2026-05-04 13:03 | 52.02324 | 1.88754 | 22989 ft | 363 kts | 77° |
| 2026-05-04 13:03 | 52.02937 | 1.92729 | 22980 ft | 362 kts | 77° |
| 2026-05-04 13:04 | 52.03543 | 1.96666 | 22986 ft | 362 kts | 77° |
| 2026-05-04 13:04 | 52.04147 | 2.00598 | 22987 ft | 361 kts | 77° |
| 2026-05-04 13:04 | 52.04754 | 2.04550 | 22983 ft | 361 kts | 77° |
| 2026-05-04 13:04 | 52.05356 | 2.08491 | 22989 ft | 360 kts | 77° |
| 2026-05-04 13:05 | 52.05963 | 2.12470 | 22995 ft | 364 kts | 77° |
| 2026-05-04 13:05 | 52.06530 | 2.16205 | 22983 ft | 367 kts | 77° |
| 2026-05-04 13:05 | 52.07147 | 2.20268 | 22986 ft | 369 kts | 77° |
| 2026-05-04 13:05 | 52.07764 | 2.24346 | 22991 ft | 371 kts | 77° |
| 2026-05-04 13:06 | 52.08374 | 2.28380 | 22991 ft | 373 kts | 77° |
| 2026-05-04 13:06 | 52.08992 | 2.32484 | 22990 ft | 374 kts | 77° |
| 2026-05-04 13:06 | 52.09524 | 2.36018 | 22995 ft | 375 kts | 77° |
| 2026-05-04 13:06 | 52.10141 | 2.40131 | 22982 ft | 376 kts | 77° |
| 2026-05-04 13:07 | 52.10757 | 2.44248 | 22982 ft | 375 kts | 77° |
| 2026-05-04 13:07 | 52.11429 | 2.48376 | 22906 ft | 379 kts | 72° |
| 2026-05-04 13:07 | 52.12591 | 2.52226 | 22662 ft | 386 kts | 59° |
| 2026-05-04 13:07 | 52.13983 | 2.56037 | 22311 ft | 393 kts | 59° |
| 2026-05-04 13:08 | 52.15382 | 2.59850 | 21955 ft | 399 kts | 58° |
| 2026-05-04 13:08 | 52.16820 | 2.63780 | 21591 ft | 402 kts | 59° |
| 2026-05-04 13:08 | 52.18249 | 2.67701 | 21227 ft | 404 kts | 60° |
| 2026-05-04 13:08 | 52.19673 | 2.71625 | 20864 ft | 406 kts | 60° |
| 2026-05-04 13:09 | 52.21110 | 2.75596 | 20490 ft | 406 kts | 60° |
| 2026-05-04 13:09 | 52.22548 | 2.79582 | 20140 ft | 406 kts | 60° |
| 2026-05-04 13:09 | 52.23966 | 2.83521 | 19770 ft | 407 kts | 60° |
| 2026-05-04 13:09 | 52.25385 | 2.87472 | 19385 ft | 395 kts | 60° |
| 2026-05-04 13:10 | 52.26736 | 2.91220 | 19037 ft | 370 kts | 59° |
| 2026-05-04 13:10 | 52.28012 | 2.94763 | 18716 ft | 350 kts | 59° |
| 2026-05-04 13:10 | 52.29202 | 2.98077 | 18417 ft | 335 kts | 59° |
| 2026-05-04 13:10 | 52.30367 | 3.01342 | 18127 ft | 332 kts | 59° |
| 2026-05-04 13:11 | 52.31514 | 3.04562 | 17829 ft | 324 kts | 59° |
| 2026-05-04 13:11 | 52.32627 | 3.07680 | 17548 ft | 315 kts | 59° |
| 2026-05-04 13:11 | 52.33724 | 3.10771 | 17267 ft | 313 kts | 59° |
| 2026-05-04 13:11 | 52.34810 | 3.13830 | 16989 ft | 311 kts | 59° |
| 2026-05-04 13:12 | 52.35892 | 3.16884 | 16709 ft | 308 kts | 59° |
| 2026-05-04 13:12 | 52.36962 | 3.19908 | 16420 ft | 306 kts | 59° |
| 2026-05-04 13:12 | 52.38018 | 3.22893 | 16159 ft | 304 kts | 59° |
| 2026-05-04 13:12 | 52.39072 | 3.25879 | 15891 ft | 302 kts | 59° |
| 2026-05-04 13:13 | 52.40123 | 3.28860 | 15621 ft | 301 kts | 59° |
| 2026-05-04 13:13 | 52.41154 | 3.31787 | 15355 ft | 300 kts | 59° |
| 2026-05-04 13:13 | 52.42192 | 3.34735 | 15084 ft | 299 kts | 59° |
| 2026-05-04 13:13 | 52.43224 | 3.37672 | 14816 ft | 298 kts | 59° |
| 2026-05-04 13:14 | 52.44256 | 3.40616 | 14546 ft | 297 kts | 59° |
| 2026-05-04 13:14 | 52.45061 | 3.43735 | 14298 ft | 295 kts | 73° |
| 2026-05-04 13:14 | 52.45542 | 3.46974 | 14010 ft | 295 kts | 77° |
| 2026-05-04 13:14 | 52.46002 | 3.50249 | 13764 ft | 294 kts | 77° |
| 2026-05-04 13:15 | 52.46458 | 3.53508 | 13494 ft | 293 kts | 77° |
| 2026-05-04 13:15 | 52.46917 | 3.56774 | 13218 ft | 293 kts | 77° |
| 2026-05-04 13:15 | 52.47372 | 3.59998 | 12953 ft | 292 kts | 76° |
| 2026-05-04 13:15 | 52.47831 | 3.63252 | 12686 ft | 291 kts | 76° |
| 2026-05-04 13:16 | 52.48284 | 3.66454 | 12430 ft | 290 kts | 77° |
| 2026-05-04 13:16 | 52.48729 | 3.69605 | 12166 ft | 287 kts | 77° |
| 2026-05-04 13:16 | 52.49180 | 3.72796 | 11917 ft | 286 kts | 77° |
| 2026-05-04 13:16 | 52.49629 | 3.75975 | 11647 ft | 285 kts | 77° |
| 2026-05-04 13:17 | 52.50076 | 3.79152 | 11393 ft | 284 kts | 77° |
| 2026-05-04 13:17 | 52.50515 | 3.82272 | 11145 ft | 283 kts | 77° |
| 2026-05-04 13:17 | 52.50958 | 3.85422 | 10895 ft | 283 kts | 77° |
| 2026-05-04 13:17 | 52.51396 | 3.88545 | 10635 ft | 282 kts | 77° |
| 2026-05-04 13:18 | 52.51834 | 3.91679 | 10399 ft | 281 kts | 77° |
| 2026-05-04 13:18 | 52.52266 | 3.94830 | 10116 ft | 280 kts | 79° |
| 2026-05-04 13:18 | 52.52214 | 3.97951 | 9951 ft | 273 kts | 107° |
| 2026-05-04 13:18 | 52.51570 | 4.00823 | 9838 ft | 267 kts | 112° |
| 2026-05-04 13:19 | 52.50883 | 4.03645 | 9724 ft | 263 kts | 113° |
| 2026-05-04 13:19 | 52.50207 | 4.06405 | 9597 ft | 260 kts | 112° |
| 2026-05-04 13:19 | 52.49531 | 4.09155 | 9455 ft | 258 kts | 113° |
| 2026-05-04 13:19 | 52.48870 | 4.11846 | 9304 ft | 257 kts | 113° |
| 2026-05-04 13:20 | 52.48199 | 4.14578 | 9163 ft | 256 kts | 113° |
| 2026-05-04 13:20 | 52.47538 | 4.17272 | 9010 ft | 254 kts | 113° |
| 2026-05-04 13:20 | 52.46882 | 4.19940 | 8862 ft | 253 kts | 113° |
| 2026-05-04 13:20 | 52.46219 | 4.22634 | 8694 ft | 252 kts | 113° |
| 2026-05-04 13:21 | 52.45567 | 4.25282 | 8516 ft | 251 kts | 113° |
| 2026-05-04 13:21 | 52.44912 | 4.27945 | 8351 ft | 251 kts | 113° |
| 2026-05-04 13:21 | 52.44258 | 4.30597 | 8208 ft | 250 kts | 112° |
| 2026-05-04 13:21 | 52.43613 | 4.33207 | 8066 ft | 249 kts | 112° |
| 2026-05-04 13:22 | 52.42957 | 4.35863 | 7863 ft | 249 kts | 112° |
| 2026-05-04 13:22 | 52.42307 | 4.38490 | 7757 ft | 248 kts | 112° |
| 2026-05-04 13:22 | 52.41660 | 4.41106 | 7609 ft | 248 kts | 112° |
| 2026-05-04 13:22 | 52.41011 | 4.43722 | 7480 ft | 247 kts | 112° |
| 2026-05-04 13:23 | 52.40367 | 4.46319 | 7275 ft | 247 kts | 112° |
| 2026-05-04 13:23 | 52.39721 | 4.48919 | 7079 ft | 246 kts | 112° |
| 2026-05-04 13:23 | 52.39076 | 4.51510 | 6928 ft | 245 kts | 112° |
| 2026-05-04 13:23 | 52.38433 | 4.54094 | 6841 ft | 244 kts | 112° |
| 2026-05-04 13:24 | 52.37789 | 4.56675 | 6673 ft | 244 kts | 112° |
| 2026-05-04 13:24 | 52.37147 | 4.59246 | 6505 ft | 243 kts | 112° |
| 2026-05-04 13:24 | 52.36512 | 4.61787 | 6340 ft | 243 kts | 112° |
| 2026-05-04 13:25 | 52.35247 | 4.66844 | 6143 ft | 236 kts | 112° |
| 2026-05-04 13:25 | 52.34625 | 4.69325 | 6159 ft | 231 kts | 112° |
| 2026-05-04 13:25 | 52.34018 | 4.71744 | 6166 ft | 227 kts | 112° |
| 2026-05-04 13:25 | 52.33707 | 4.74193 | 6148 ft | 219 kts | 83° |
| 2026-05-04 13:26 | 52.34367 | 4.76336 | 6169 ft | 209 kts | 47° |
| 2026-05-04 13:26 | 52.35400 | 4.77984 | 6172 ft | 207 kts | 43° |
| 2026-05-04 13:26 | 52.36474 | 4.79629 | 6143 ft | 219 kts | 43° |
| 2026-05-04 13:26 | 52.37666 | 4.81423 | 5758 ft | 244 kts | 42° |
| 2026-05-04 13:27 | 52.38971 | 4.83368 | 5328 ft | 266 kts | 42° |
| 2026-05-04 13:27 | 52.40158 | 4.85751 | 4874 ft | 273 kts | 64° |
| 2026-05-04 13:27 | 52.40529 | 4.88720 | 4396 ft | 264 kts | 86° |
| 2026-05-04 13:27 | 52.40612 | 4.91701 | 3938 ft | 258 kts | 87° |
| 2026-05-04 13:28 | 52.40681 | 4.94562 | 3458 ft | 252 kts | 86° |
| 2026-05-04 13:28 | 52.40751 | 4.97385 | 3131 ft | 239 kts | 86° |
| 2026-05-04 13:28 | 52.40818 | 4.99991 | 3229 ft | 225 kts | 86° |
| 2026-05-04 13:28 | 52.40883 | 5.02532 | 3253 ft | 219 kts | 86° |
| 2026-05-04 13:29 | 52.40931 | 5.04936 | 3246 ft | 202 kts | 91° |
| 2026-05-04 13:29 | 52.40445 | 5.06846 | 3207 ft | 169 kts | 142° |
| 2026-05-04 13:29 | 52.39409 | 5.07470 | 3249 ft | 155 kts | 168° |
| 2026-05-04 13:29 | 52.38370 | 5.07781 | 3254 ft | 155 kts | 170° |
| 2026-05-04 13:30 | 52.37233 | 5.08052 | 3284 ft | 174 kts | 172° |
| 2026-05-04 13:30 | 52.35955 | 5.08238 | 3224 ft | 197 kts | 181° |
| 2026-05-04 13:30 | 52.34732 | 5.07534 | 3018 ft | 176 kts | 214° |
| 2026-05-04 13:30 | 52.33797 | 5.06440 | 2788 ft | 155 kts | 217° |
| 2026-05-04 13:31 | 52.32986 | 5.05347 | 2570 ft | 151 kts | 234° |
| 2026-05-04 13:31 | 52.32673 | 5.03754 | 2406 ft | 151 kts | 267° |
| 2026-05-04 13:31 | 52.32573 | 5.02013 | 2257 ft | 156 kts | 258° |
| 2026-05-04 13:31 | 52.32077 | 5.00410 | 2095 ft | 160 kts | 244° |
| 2026-05-04 13:32 | 52.31959 | 4.98645 | 1909 ft | 158 kts | 290° |
| 2026-05-04 13:32 | 52.32118 | 4.97981 | 1852 ft | 158 kts | 297° |
| 2026-05-04 13:32 | 52.32378 | 4.96583 | 1714 ft | 163 kts | 276° |
| 2026-05-04 13:33 | 52.32302 | 4.94707 | 1566 ft | 168 kts | 267° |
| 2026-05-04 13:33 | 52.32252 | 4.93304 | 1285 ft | 184 kts | 270° |
| 2026-05-04 13:33 | 52.32223 | 4.91435 | 884 ft | 187 kts | 269° |
| 2026-05-04 13:33 | 52.32157 | 4.89430 | 800 ft | 157 kts | 268° |
| 2026-05-04 13:34 | 52.32104 | 4.87702 | 794 ft | 153 kts | 270° |
| 2026-05-04 13:34 | 52.32052 | 4.86086 | 733 ft | 127 kts | 268° |
| 2026-05-04 13:34 | 52.32008 | 4.84730 | 632 ft | 120 kts | 271° |
| 2026-05-04 13:34 | 52.31948 | 4.83292 | 482 ft | 126 kts | 270° |
| 2026-05-04 13:35 | 52.31884 | 4.81796 | 410 ft | 134 kts | 269° |
| 2026-05-04 13:35 | 52.31805 | 4.78862 | 0 ft | 121 kts | 267° |
| 2026-05-04 13:35 | 52.31778 | 4.77752 | -2 ft | 64 kts | 266° |
| 2026-05-04 13:36 | 52.31747 | 4.77109 | 0 ft | 46 kts | 260° |
| 2026-05-04 13:36 | 52.31631 | 4.76743 | 0 ft | 6 kts | 235° |
| 2026-05-04 13:36 | 52.31629 | 4.76738 | 0 ft | 4 kts | 235° |
| 2026-05-04 13:36 | 52.31548 | 4.76626 | 1 ft | 25 kts | 173° |
| 2026-05-04 13:37 | 52.31473 | 4.76912 | 3 ft | 34 kts | 81° |
| 2026-05-04 13:37 | 52.31464 | 4.77192 | 4 ft | 24 kts | 121° |
| 2026-05-04 13:37 | 52.31338 | 4.77416 | 5 ft | 28 kts | 137° |
| 2026-05-04 13:37 | 52.31125 | 4.77503 | 6 ft | 38 kts | 188° |
| 2026-05-04 13:38 | 52.30886 | 4.77472 | 7 ft | 29 kts | 186° |
| 2026-05-04 13:38 | 52.30714 | 4.77454 | 6 ft | 20 kts | 182° |
| 2026-05-04 13:38 | 52.30686 | 4.77453 | 6 ft | 2 kts | 168° |
| 2026-05-04 13:38 | 52.30630 | 4.77487 | 5 ft | 10 kts | 159° |
| 2026-05-04 13:39 | 52.30538 | 4.77559 | 3 ft | 24 kts | 156° |
| 2026-05-04 13:39 | 52.30318 | 4.77555 | 0 ft | 37 kts | 191° |
| 2026-05-04 13:39 | 52.30106 | 4.77358 | 0 ft | 38 kts | 236° |
| 2026-05-04 13:39 | 52.29951 | 4.76970 | -1 ft | 36 kts | 238° |
| 2026-05-04 13:40 | 52.29813 | 4.76706 | -2 ft | 26 kts | 237° |
| 2026-05-04 13:40 | 52.29725 | 4.76495 | -2 ft | 19 kts | 231° |
| 2026-05-04 13:40 | 52.29645 | 4.76358 | -2 ft | 13 kts | 203° |
| 2026-05-04 13:40 | 52.29594 | 4.76400 | -2 ft | 6 kts | 147° |
| 2026-05-04 13:41 | 52.29579 | 4.76416 | -2 ft | 0 kts | 146° |